createdAt,value
2018-03-11T00:02:11.065Z,17.40
2018-03-11T00:04:38.570Z,16.67
2018-03-11T00:07:06.198Z,17.03
2018-03-11T00:09:33.644Z,18.13
2018-03-11T00:12:01.451Z,18.33
2018-03-11T00:14:28.903Z,17.33
2018-03-11T00:16:56.387Z,18.80
2018-03-11T00:19:23.879Z,17.30
2018-03-11T00:21:51.347Z,18.08
2018-03-11T00:24:19.190Z,17.13
2018-03-11T00:26:47.007Z,18.00
2018-03-11T00:29:14.471Z,18.10
2018-03-11T00:31:41.987Z,18.67
2018-03-11T00:34:09.463Z,17.10
2018-03-11T00:36:37.599Z,18.70
2018-03-11T00:39:05.023Z,17.30
2018-03-11T00:41:32.542Z,16.80
2018-03-11T00:43:59.976Z,17.40
2018-03-11T00:46:27.405Z,17.97
2018-03-11T00:48:54.851Z,17.43
2018-03-11T00:51:22.304Z,18.67
2018-03-11T00:53:49.744Z,18.03
2018-03-11T00:56:17.182Z,16.80
2018-03-11T00:58:44.716Z,18.27
2018-03-11T01:01:12.150Z,21.10
2018-03-11T01:03:39.598Z,18.80
2018-03-11T01:06:07.037Z,19.55
2018-03-11T01:08:34.471Z,18.00
2018-03-11T01:11:01.943Z,18.30
2018-03-11T01:13:29.398Z,17.63
2018-03-11T01:15:56.828Z,18.37
2018-03-11T01:18:24.308Z,16.83
2018-03-11T01:20:51.749Z,18.27
2018-03-11T01:23:19.187Z,18.50
2018-03-11T01:25:46.639Z,18.15
2018-03-11T01:28:14.245Z,17.47
2018-03-11T01:30:41.673Z,16.60
2018-03-11T01:33:09.119Z,17.67
2018-03-11T01:35:36.555Z,16.70
2018-03-11T01:38:03.991Z,17.53
2018-03-11T01:40:31.431Z,17.13
2018-03-11T01:42:58.855Z,20.10
2018-03-11T01:45:26.287Z,21.73
2018-03-11T01:47:53.787Z,18.05
2018-03-11T01:50:21.222Z,17.20
2018-03-11T01:53:00.634Z,18.20
2018-03-11T01:55:28.058Z,17.10
2018-03-11T01:57:55.482Z,17.65
2018-03-11T02:00:22.928Z,18.57
2018-03-11T02:02:50.358Z,18.50
2018-03-11T02:05:17.786Z,19.80
2018-03-11T02:07:45.232Z,19.00
2018-03-11T02:10:12.686Z,20.00
2018-03-11T02:12:40.118Z,20.20
2018-03-11T02:15:07.668Z,19.92
2018-03-11T02:17:35.159Z,21.40
2018-03-11T02:20:02.598Z,21.67
2018-03-11T02:22:30.079Z,20.00
2018-03-11T02:24:57.513Z,21.45
2018-03-11T02:27:24.999Z,19.60
2018-03-11T02:29:52.444Z,18.63
2018-03-11T02:32:19.915Z,18.87
2018-03-11T02:34:47.347Z,16.90
2018-03-11T02:37:14.827Z,18.33
2018-03-11T02:39:42.259Z,16.23
2018-03-11T02:42:09.689Z,16.62
2018-03-11T02:44:37.131Z,17.17
2018-03-11T02:47:04.555Z,17.17
2018-03-11T02:49:32.017Z,17.80
2018-03-11T02:51:59.568Z,18.85
2018-03-11T02:54:27.007Z,17.53
2018-03-11T02:56:54.438Z,15.60
2018-03-11T02:59:21.886Z,16.70
2018-03-11T03:01:49.394Z,16.00
2018-03-11T03:04:16.847Z,16.05
2018-03-11T03:06:44.300Z,16.37
2018-03-11T03:09:11.770Z,17.47
2018-03-11T03:11:39.204Z,17.03
2018-03-11T03:14:06.646Z,17.40
2018-03-11T03:16:34.788Z,16.92
2018-03-11T03:19:02.317Z,16.87
2018-03-11T03:21:29.788Z,17.70
2018-03-11T03:23:57.210Z,16.10
2018-03-11T03:26:24.644Z,16.12
2018-03-11T03:28:52.087Z,16.02
2018-03-11T03:31:20.330Z,17.03
2018-03-11T03:33:47.782Z,17.50
2018-03-11T03:36:15.434Z,17.03
2018-03-11T03:38:42.864Z,17.97
2018-03-11T03:41:10.359Z,17.00
2018-03-11T03:43:37.805Z,17.73
2018-03-11T03:46:05.235Z,19.90
2018-03-11T03:48:32.666Z,19.87
2018-03-11T03:51:00.183Z,20.10
2018-03-11T03:53:27.619Z,20.58
2018-03-11T03:55:55.762Z,21.58
2018-03-11T03:58:23.203Z,24.10
2018-03-11T04:00:50.698Z,22.48
2018-03-11T04:03:18.138Z,24.87
2018-03-11T04:05:45.590Z,27.90
2018-03-11T04:08:13.034Z,27.80
2018-03-11T04:10:40.810Z,26.57
2018-03-11T04:13:08.254Z,28.90
2018-03-11T04:15:35.786Z,26.00
2018-03-11T04:18:03.210Z,27.87
2018-03-11T04:20:30.696Z,28.10
2018-03-11T04:22:58.132Z,27.57
2018-03-11T04:25:25.565Z,26.98
2018-03-11T04:27:53.015Z,29.30
2018-03-11T04:30:20.443Z,30.37
2018-03-11T04:32:47.884Z,30.57
2018-03-11T04:35:15.327Z,32.57
2018-03-11T04:37:42.759Z,31.53
2018-03-11T04:40:10.255Z,33.20
2018-03-11T04:42:37.697Z,31.60
2018-03-11T04:45:05.136Z,30.47
2018-03-11T04:47:32.592Z,32.03
2018-03-11T04:50:00.051Z,29.30
2018-03-11T04:52:27.484Z,31.20
2018-03-11T04:54:54.995Z,31.80
2018-03-11T04:57:22.816Z,29.85
2018-03-11T04:59:50.253Z,31.23
2018-03-11T05:02:17.679Z,33.50
2018-03-11T05:04:45.118Z,32.07
2018-03-11T05:07:12.550Z,33.50
2018-03-11T05:09:39.980Z,31.40
2018-03-11T05:12:07.423Z,30.83
2018-03-11T05:14:35.274Z,32.67
2018-03-11T05:17:02.702Z,29.67
2018-03-11T05:19:30.190Z,30.50
2018-03-11T05:21:57.628Z,30.20
2018-03-11T05:24:25.100Z,29.83
2018-03-11T05:26:52.556Z,31.73
2018-03-11T05:29:20.045Z,29.87
2018-03-11T05:31:47.470Z,30.70
2018-03-11T05:34:14.914Z,29.37
2018-03-11T05:36:42.343Z,29.27
2018-03-11T05:39:09.788Z,29.53
2018-03-11T05:41:37.232Z,29.57
2018-03-11T05:44:04.795Z,29.20
2018-03-11T05:46:32.217Z,28.97
2018-03-11T05:48:59.669Z,28.75
2018-03-11T05:51:27.109Z,29.60
2018-03-11T05:53:54.575Z,29.00
2018-03-11T05:56:22.017Z,30.27
2018-03-11T05:58:49.443Z,28.43
2018-03-11T06:01:16.959Z,29.23
2018-03-11T06:03:44.407Z,32.50
2018-03-11T06:06:11.835Z,27.33
2018-03-11T06:08:39.270Z,27.73
2018-03-11T06:11:06.710Z,27.63
2018-03-11T06:13:34.142Z,26.45
2018-03-11T06:16:01.607Z,26.58
2018-03-11T06:18:29.058Z,28.17
2018-03-11T06:20:56.486Z,26.93
2018-03-11T06:23:23.910Z,27.97
2018-03-11T06:25:51.356Z,30.60
2018-03-11T06:28:18.899Z,31.07
2018-03-11T06:30:46.360Z,29.90
2018-03-11T06:33:13.811Z,28.52
2018-03-11T06:35:41.260Z,29.13
2018-03-11T06:38:08.692Z,32.03
2018-03-11T06:40:36.188Z,27.97
2018-03-11T06:43:03.637Z,29.30
2018-03-11T06:45:31.747Z,29.43
2018-03-11T06:47:59.280Z,29.40
2018-03-11T06:50:26.703Z,27.20
2018-03-11T06:52:54.131Z,25.73
2018-03-11T06:55:21.647Z,23.83
2018-03-11T06:57:49.078Z,24.03
2018-03-11T07:00:16.732Z,20.73
2018-03-11T07:02:44.181Z,22.87
2018-03-11T07:05:11.676Z,22.13
2018-03-11T07:07:39.102Z,21.80
2018-03-11T07:10:06.598Z,22.77
2018-03-11T07:12:34.025Z,23.10
2018-03-11T07:15:01.460Z,23.07
2018-03-11T07:17:28.915Z,24.43
2018-03-11T07:19:56.346Z,24.97
2018-03-11T07:22:23.781Z,23.30
2018-03-11T07:24:51.223Z,23.87
2018-03-11T07:27:18.671Z,24.20
2018-03-11T07:29:46.134Z,22.50
2018-03-11T07:32:14.083Z,22.65
2018-03-11T07:34:41.511Z,22.07
2018-03-11T07:37:09.003Z,21.57
2018-03-11T07:39:36.455Z,21.27
2018-03-11T07:42:03.895Z,21.70
2018-03-11T07:44:31.323Z,21.10
2018-03-11T07:46:58.755Z,20.43
2018-03-11T07:49:26.187Z,22.17
2018-03-11T07:51:53.670Z,21.80
2018-03-11T07:54:21.181Z,21.47
2018-03-11T07:56:48.626Z,21.02
2018-03-11T07:59:16.150Z,21.75
2018-03-11T08:01:43.616Z,21.62
2018-03-11T08:04:11.044Z,20.20
2018-03-11T08:06:38.490Z,20.57
2018-03-11T08:09:05.942Z,20.42
2018-03-11T08:11:33.546Z,19.43
2018-03-11T08:14:00.993Z,19.27
2018-03-11T08:16:28.452Z,19.77
2018-03-11T08:18:55.934Z,18.77
2018-03-11T08:21:23.376Z,18.52
2018-03-11T08:23:50.833Z,17.70
2018-03-11T08:26:18.276Z,18.40
2018-03-11T08:28:46.667Z,16.70
2018-03-11T08:31:14.124Z,16.87
2018-03-11T08:33:41.617Z,17.20
2018-03-11T08:36:09.107Z,18.10
2018-03-11T08:38:36.538Z,18.47
2018-03-11T08:41:03.987Z,16.60
2018-03-11T08:43:32.174Z,15.77
2018-03-11T08:45:59.751Z,17.53
2018-03-11T08:48:27.299Z,23.10
2018-03-11T08:50:54.739Z,18.47
2018-03-11T08:53:22.182Z,18.20
2018-03-11T08:55:49.627Z,20.00
2018-03-11T08:58:17.070Z,17.60
2018-03-11T09:00:44.518Z,17.87
2018-03-11T09:03:11.956Z,17.67
2018-03-11T09:05:39.397Z,17.23
2018-03-11T09:08:06.845Z,17.83
2018-03-11T09:10:34.367Z,17.70
2018-03-11T09:13:02.032Z,18.93
2018-03-11T09:15:29.585Z,18.92
2018-03-11T09:17:57.042Z,20.00
2018-03-11T09:20:24.486Z,19.50
2018-03-11T09:22:51.956Z,18.90
2018-03-11T09:25:19.451Z,19.20
2018-03-11T09:27:46.889Z,16.33
2018-03-11T09:30:14.379Z,18.08
2018-03-11T09:32:41.815Z,17.43
2018-03-11T09:35:09.355Z,17.10
2018-03-11T09:37:36.915Z,17.40
2018-03-11T09:40:04.347Z,16.30
2018-03-11T09:42:31.786Z,17.30
2018-03-11T09:44:59.231Z,16.67
2018-03-11T09:47:26.662Z,16.77
2018-03-11T09:49:54.183Z,16.33
2018-03-11T09:52:21.647Z,15.57
2018-03-11T09:54:49.086Z,17.17
2018-03-11T09:57:16.538Z,16.10
2018-03-11T09:59:43.978Z,16.27
2018-03-11T10:02:11.482Z,15.32
2018-03-11T10:04:38.922Z,15.50
2018-03-11T10:07:06.394Z,15.93
2018-03-11T10:09:33.826Z,15.10
2018-03-11T10:12:01.314Z,13.83
2018-03-11T10:14:28.770Z,16.10
2018-03-11T10:16:56.230Z,14.90
2018-03-11T10:19:23.674Z,13.90
2018-03-11T10:21:51.182Z,15.83
2018-03-11T10:24:18.594Z,16.17
2018-03-11T10:26:46.022Z,13.70
2018-03-11T10:29:13.484Z,14.67
2018-03-11T10:31:41.123Z,15.00
2018-03-11T10:34:08.576Z,14.48
2018-03-11T10:36:36.040Z,13.50
2018-03-11T10:39:03.476Z,15.07
2018-03-11T10:41:31.020Z,17.20
2018-03-11T10:43:58.829Z,20.20
2018-03-11T10:46:26.264Z,15.47
2018-03-11T10:48:53.797Z,15.35
2018-03-11T10:51:21.275Z,15.40
2018-03-11T10:53:48.731Z,14.67
2018-03-11T10:56:16.161Z,15.40
2018-03-11T10:58:43.615Z,14.73
2018-03-11T11:01:13.962Z,15.43
2018-03-11T11:03:46.978Z,15.53
2018-03-11T11:06:14.515Z,15.00
2018-03-11T11:08:42.042Z,16.77
2018-03-11T11:11:09.511Z,15.97
2018-03-11T11:13:36.997Z,16.98
2018-03-11T11:16:04.406Z,16.00
2018-03-11T11:18:32.851Z,16.20
2018-03-11T11:21:00.959Z,14.00
2018-03-11T11:23:28.402Z,14.13
2018-03-11T11:25:55.853Z,14.37
2018-03-11T11:28:23.450Z,14.63
2018-03-11T11:30:50.897Z,13.27
2018-03-11T11:33:18.664Z,13.73
2018-03-11T11:35:46.104Z,12.23
2018-03-11T11:38:13.593Z,12.82
2018-03-11T11:40:41.052Z,13.80
2018-03-11T11:43:08.535Z,12.02
2018-03-11T11:45:35.965Z,11.10
2018-03-11T11:48:03.423Z,10.20
2018-03-11T11:50:30.942Z,11.60
2018-03-11T11:52:58.349Z,12.77
2018-03-11T11:55:26.803Z,11.35
2018-03-11T11:57:54.237Z,11.20
2018-03-11T12:00:21.683Z,11.70
2018-03-11T12:02:49.185Z,12.97
2018-03-11T12:05:16.634Z,10.52
2018-03-11T12:07:44.082Z,12.15
2018-03-11T12:10:11.538Z,12.13
2018-03-11T12:12:38.979Z,11.73
2018-03-11T12:15:06.419Z,11.87
2018-03-11T12:17:33.876Z,11.70
2018-03-11T12:20:01.306Z,13.13
2018-03-11T12:22:28.746Z,11.70
2018-03-11T12:24:56.193Z,11.43
2018-03-11T12:27:23.643Z,14.90
2018-03-11T12:29:51.085Z,12.10
2018-03-11T12:32:18.542Z,12.30
2018-03-11T12:34:45.989Z,12.80
2018-03-11T12:37:13.487Z,13.37
2018-03-11T12:39:40.949Z,13.47
2018-03-11T12:42:08.783Z,14.10
2018-03-11T12:44:36.223Z,12.10
2018-03-11T12:47:03.728Z,11.07
2018-03-11T12:49:31.182Z,12.43
2018-03-11T12:51:59.319Z,10.95
2018-03-11T12:54:26.768Z,11.55
2018-03-11T12:56:54.237Z,10.40
2018-03-11T12:59:21.699Z,9.53
2018-03-11T13:01:49.149Z,9.33
2018-03-11T13:04:16.683Z,10.50
2018-03-11T13:06:44.199Z,9.47
2018-03-11T13:09:11.677Z,9.40
2018-03-11T13:11:39.130Z,10.30
2018-03-11T13:14:06.566Z,9.47
2018-03-11T13:16:34.010Z,10.17
2018-03-11T13:19:01.445Z,11.40
2018-03-11T13:21:28.888Z,10.97
2018-03-11T13:23:56.656Z,10.63
2018-03-11T13:26:24.111Z,19.03
2018-03-11T13:28:51.544Z,11.67
2018-03-11T13:31:19.088Z,11.13
2018-03-11T13:33:58.340Z,11.15
2018-03-11T13:36:25.793Z,10.73
2018-03-11T13:41:54.795Z,10.47
2018-03-11T13:44:22.332Z,9.63
2018-03-11T13:47:02.407Z,9.35
2018-03-11T13:49:29.835Z,9.00
2018-03-11T13:52:09.145Z,7.87
2018-03-11T13:54:36.575Z,8.27
2018-03-11T14:42:28.118Z,8.07
2018-03-11T14:44:56.677Z,6.67
2018-03-11T14:47:24.225Z,7.37
2018-03-11T14:49:51.658Z,7.40
2018-03-11T14:52:19.081Z,6.87
2018-03-11T14:54:46.595Z,6.73
2018-03-11T14:57:14.086Z,6.60
2018-03-11T14:59:41.845Z,6.90
2018-03-11T15:02:09.307Z,9.30
2018-03-11T15:04:37.255Z,10.40
2018-03-11T15:07:04.706Z,8.67
2018-03-11T15:09:32.150Z,9.90
2018-03-11T15:11:59.606Z,9.00
2018-03-11T15:14:27.073Z,10.60
2018-03-11T15:16:54.542Z,10.57
2018-03-11T15:19:22.020Z,10.18
2018-03-11T15:21:49.454Z,10.50
2018-03-11T15:24:16.895Z,12.27
2018-03-11T15:26:44.322Z,6.47
2018-03-11T15:29:11.751Z,7.47
2018-03-11T15:31:39.234Z,6.83
2018-03-11T15:34:06.686Z,8.43
2018-03-11T15:36:34.191Z,9.77
2018-03-11T15:39:01.640Z,10.23
2018-03-11T15:41:29.083Z,16.40
2018-03-11T15:43:56.543Z,30.65
2018-03-11T15:46:23.997Z,34.83
2018-03-11T15:48:51.445Z,21.20
2018-03-11T15:51:18.923Z,21.10
2018-03-11T15:53:46.384Z,15.93
2018-03-11T15:56:13.829Z,14.20
2018-03-11T15:58:41.265Z,13.90
2018-03-11T16:01:08.867Z,15.03
2018-03-11T16:03:36.312Z,12.90
2018-03-11T16:06:03.750Z,10.10
2018-03-11T16:08:31.243Z,7.50
2018-03-11T16:10:58.671Z,7.27
2018-03-11T16:13:26.106Z,8.05
2018-03-11T16:15:53.559Z,9.77
2018-03-11T16:18:21.067Z,8.70
2018-03-11T16:20:48.511Z,9.20
2018-03-11T16:23:15.970Z,20.17
2018-03-11T16:25:43.408Z,13.67
2018-03-11T16:28:10.844Z,9.80
2018-03-11T16:30:38.305Z,10.40
2018-03-11T16:33:06.147Z,11.30
2018-03-11T16:35:33.680Z,10.00
2018-03-11T16:38:01.146Z,15.33
2018-03-11T16:40:28.580Z,9.60
2018-03-11T16:42:56.014Z,8.73
2018-03-11T16:45:23.508Z,7.43
2018-03-11T16:47:50.946Z,11.20
2018-03-11T16:50:18.381Z,10.13
2018-03-11T16:52:45.883Z,7.73
2018-03-11T16:55:13.337Z,8.30
2018-03-11T16:57:40.791Z,9.17
2018-03-11T17:00:08.247Z,9.47
2018-03-11T17:02:35.691Z,9.80
2018-03-11T17:05:03.171Z,16.23
2018-03-11T17:07:30.618Z,20.37
2018-03-11T17:09:58.055Z,9.88
2018-03-11T17:12:25.507Z,10.10
2018-03-11T17:14:52.965Z,17.37
2018-03-11T17:17:20.394Z,10.23
2018-03-11T17:19:47.834Z,9.23
2018-03-11T17:22:15.327Z,12.43
2018-03-11T17:24:42.758Z,12.80
2018-03-11T17:27:10.198Z,17.50
2018-03-11T17:29:37.658Z,11.20
2018-03-11T17:32:05.138Z,12.30
2018-03-11T17:34:33.200Z,11.13
2018-03-11T17:37:00.642Z,10.77
2018-03-11T17:39:28.117Z,11.65
2018-03-11T17:41:55.546Z,10.53
2018-03-11T17:44:23.102Z,10.87
2018-03-11T17:46:50.545Z,11.27
2018-03-11T17:49:18.122Z,93.63
2018-03-11T17:51:45.675Z,64.53
2018-03-11T17:54:13.139Z,40.40
2018-03-11T17:56:40.609Z,19.60
2018-03-11T17:59:08.061Z,20.97
2018-03-11T18:01:35.499Z,22.50
2018-03-11T18:04:03.215Z,23.97
2018-03-11T18:06:30.671Z,29.65
2018-03-11T18:08:58.107Z,31.43
2018-03-11T18:11:25.598Z,26.33
2018-03-11T18:13:53.113Z,28.47
2018-03-11T18:16:20.543Z,27.07
2018-03-11T18:18:48.041Z,19.40
2018-03-11T18:21:15.488Z,14.70
2018-03-11T18:23:42.968Z,13.70
2018-03-11T18:26:10.492Z,16.80
2018-03-11T18:28:37.938Z,15.93
2018-03-11T18:31:05.403Z,16.12
2018-03-11T18:33:33.380Z,19.93
2018-03-11T18:36:00.972Z,83.22
2018-03-11T18:38:29.136Z,33.60
2018-03-11T18:47:13.374Z,17.60
2018-03-11T18:49:41.027Z,18.00
2018-03-11T18:52:08.579Z,24.90
2018-03-11T18:54:36.351Z,26.23
2018-03-11T18:57:03.863Z,18.20
2018-03-11T18:59:31.362Z,18.50
2018-03-11T19:01:59.050Z,17.92
2018-03-11T19:04:26.602Z,17.03
2018-03-11T19:06:54.205Z,13.77
2018-03-11T19:09:21.691Z,13.73
2018-03-11T19:11:49.369Z,13.60
2018-03-11T19:14:16.955Z,14.67
2018-03-11T19:16:44.461Z,17.00
2018-03-11T19:19:11.974Z,20.73
2018-03-11T19:21:39.504Z,19.37
2018-03-11T19:24:06.968Z,18.87
2018-03-11T19:26:34.468Z,17.00
2018-03-11T19:29:01.924Z,15.20
2018-03-11T19:31:29.555Z,18.90
2018-03-11T19:33:57.403Z,15.60
2018-03-11T19:36:24.876Z,16.37
2018-03-11T19:38:52.521Z,20.30
2018-03-11T19:41:20.150Z,18.87
2018-03-11T19:43:47.880Z,16.87
2018-03-11T19:46:16.845Z,18.92
2018-03-11T19:48:44.911Z,17.00
2018-03-11T19:51:12.586Z,16.27
2018-03-11T19:53:40.224Z,16.20
2018-03-11T19:56:08.101Z,16.97
2018-03-11T19:58:35.675Z,17.33
2018-03-11T20:01:03.525Z,17.10
2018-03-11T20:03:31.289Z,19.30
2018-03-11T20:05:59.125Z,19.17
2018-03-11T20:08:27.771Z,19.35
2018-03-11T20:10:55.609Z,18.77
2018-03-11T20:13:23.089Z,18.90
2018-03-11T20:15:50.678Z,19.12
2018-03-11T20:18:18.196Z,19.87
2018-03-11T20:20:46.592Z,20.30
2018-03-11T20:23:14.826Z,19.10
2018-03-11T20:25:42.368Z,20.30
2018-03-11T20:28:10.102Z,17.20
2018-03-11T20:30:37.558Z,19.10
2018-03-11T20:33:05.124Z,17.20
2018-03-11T20:35:32.559Z,17.37
2018-03-11T20:38:00.080Z,25.37
2018-03-11T20:40:27.819Z,19.05
2018-03-11T20:42:55.555Z,20.23
2018-03-11T20:45:23.037Z,18.60
2018-03-11T20:47:50.451Z,18.30
2018-03-11T20:50:17.888Z,17.00
2018-03-11T20:52:45.350Z,18.67
2018-03-11T20:55:12.788Z,17.60
2018-03-11T20:57:40.214Z,17.50
2018-03-11T21:00:07.653Z,16.03
2018-03-11T21:02:35.157Z,15.43
2018-03-11T21:05:02.604Z,14.73
2018-03-11T21:07:30.218Z,16.60
2018-03-11T21:09:57.948Z,16.12
2018-03-11T21:12:25.410Z,16.80
2018-03-11T21:14:52.866Z,17.00
2018-03-11T21:17:21.208Z,16.23
2018-03-11T21:19:48.651Z,17.07
2018-03-11T21:22:16.235Z,16.47
2018-03-11T21:24:43.690Z,18.60
2018-03-11T21:27:11.225Z,17.77
2018-03-11T21:29:38.750Z,19.05
2018-03-11T21:32:06.193Z,18.83
2018-03-11T21:34:33.762Z,18.65
2018-03-11T21:37:01.218Z,19.40
2018-03-11T21:39:28.683Z,19.60
2018-03-11T21:41:56.176Z,17.37
2018-03-11T21:44:23.624Z,18.20
2018-03-11T21:46:51.056Z,17.17
2018-03-11T21:49:18.663Z,18.43
2018-03-11T21:51:46.108Z,18.17
2018-03-11T21:54:13.647Z,20.10
2018-03-11T21:56:41.197Z,21.83
2018-03-11T21:59:08.643Z,18.23
2018-03-11T22:01:36.219Z,18.47
2018-03-11T22:04:03.651Z,20.00
2018-03-11T22:06:31.097Z,19.93
2018-03-11T22:08:58.533Z,19.83
2018-03-11T22:11:25.977Z,19.60
2018-03-11T22:13:53.482Z,18.43
2018-03-11T22:16:20.907Z,18.12
2018-03-11T22:18:48.334Z,19.53
2018-03-11T22:21:15.777Z,19.40
2018-03-11T22:23:43.207Z,19.07
2018-03-11T22:26:10.698Z,22.23
2018-03-11T22:28:38.246Z,22.27
2018-03-11T22:31:05.886Z,19.97
2018-03-11T22:33:33.363Z,19.70
2018-03-11T22:36:00.802Z,19.80
2018-03-11T22:38:28.246Z,18.20
2018-03-11T22:40:55.690Z,17.80
2018-03-11T22:43:23.910Z,20.27
2018-03-11T22:45:51.366Z,19.60
2018-03-11T22:48:18.804Z,18.37
2018-03-11T22:50:46.242Z,18.60
2018-03-11T22:53:13.695Z,18.37
2018-03-11T22:55:41.128Z,20.23
2018-03-11T22:58:08.573Z,18.73
2018-03-11T23:00:36.004Z,18.17
2018-03-11T23:03:03.532Z,18.77
2018-03-11T23:05:30.991Z,18.00
2018-03-11T23:07:58.455Z,21.53
2018-03-11T23:10:26.047Z,28.27
2018-03-11T23:12:53.569Z,25.40
2018-03-11T23:15:21.003Z,21.97
2018-03-11T23:17:48.424Z,18.70
2018-03-11T23:20:16.124Z,18.53
2018-03-11T23:22:43.635Z,19.00
2018-03-11T23:25:11.147Z,19.03
2018-03-11T23:27:38.583Z,18.60
2018-03-11T23:30:06.013Z,16.87
2018-03-11T23:32:33.463Z,18.20
2018-03-11T23:35:00.918Z,19.97
2018-03-11T23:37:28.354Z,19.97
2018-03-11T23:39:55.800Z,18.43
2018-03-11T23:42:23.294Z,19.17
2018-03-11T23:44:50.746Z,18.17
2018-03-11T23:47:18.174Z,20.30
2018-03-11T23:49:45.614Z,22.40
2018-03-11T23:52:13.048Z,19.50
2018-03-11T23:54:40.599Z,22.17
2018-03-11T23:57:08.134Z,20.50
2018-03-11T23:59:35.569Z,19.52
